Time;durP1;ratioP1;P1;durP2;ratioP2;P2;SDS_P1;SDS_P2;PMS_P1;PMS_P2;Temp;Humidity;BMP_temperature;BMP_pressure;BME280_temperature;BME280_humidity;BME280_pressure;Samples;Min_cycle;Max_cycle;Signal;HPM_P1;HPM_P2
2023/12/26 00:00:20;;;;;;;5.50;1.55;;;;;;;21.58;39.89;99197.63;2090549;28;20033;-77
2023/12/26 00:01:26;;;;;;;7.93;1.40;;;;;;;21.55;39.89;99192.16;2105064;28;20037;-75
2023/12/26 00:02:28;;;;;;;6.80;1.40;;;;;;;21.52;39.70;99202.69;2087842;28;20038;-75
2023/12/26 00:03:29;;;;;;;5.80;1.48;;;;;;;21.50;39.67;99213.25;2071465;28;20105;-76
2023/12/26 00:04:32;;;;;;;7.43;1.55;;;;;;;21.49;39.63;99216.34;2080497;28;20034;-77
2023/12/26 00:05:33;;;;;;;9.93;1.80;;;;;;;21.48;39.67;99212.06;2080749;28;20054;-78
2023/12/26 00:06:35;;;;;;;7.43;1.50;;;;;;;21.46;39.69;99208.91;2090449;28;20124;-77
2023/12/26 00:07:36;;;;;;;5.68;1.50;;;;;;;21.44;39.66;99214.78;2081373;28;20948;-78
2023/12/26 00:08:38;;;;;;;3.92;1.27;;;;;;;21.42;39.61;99217.09;2072640;28;20065;-77
2023/12/26 00:09:40;;;;;;;4.13;1.15;;;;;;;21.41;39.43;99220.25;2081383;28;20049;-77
2023/12/26 00:10:44;;;;;;;6.05;1.33;;;;;;;21.38;39.51;99224.53;2090438;28;20041;-78
2023/12/26 00:11:48;;;;;;;6.20;1.17;;;;;;;21.36;39.47;99215.91;2089285;28;20144;-77
2023/12/26 00:12:50;;;;;;;4.63;1.63;;;;;;;21.25;39.29;99196.69;2074469;28;20149;-77
2023/12/26 00:13:52;;;;;;;7.45;1.60;;;;;;;21.32;39.24;99212.34;2082105;28;20041;-76
2023/12/26 00:14:53;;;;;;;5.38;1.35;;;;;;;21.28;39.43;99217.03;2083988;28;20800;-76
2023/12/26 00:15:55;;;;;;;4.53;1.25;;;;;;;21.29;39.19;99199.44;2089826;28;20025;-76
2023/12/26 00:16:59;;;;;;;4.75;1.17;;;;;;;21.27;39.28;99216.22;2085511;28;20034;-76
2023/12/26 00:18:00;;;;;;;5.65;1.25;;;;;;;21.27;39.09;99215.44;2090722;28;20038;-76
2023/12/26 00:19:05;;;;;;;4.30;1.20;;;;;;;21.21;38.97;99211.50;2098036;28;20040;-77
2023/12/26 00:20:07;;;;;;;6.18;1.33;;;;;;;21.22;39.01;99224.03;2082099;28;20048;-77
2023/12/26 00:21:09;;;;;;;5.15;1.40;;;;;;;21.21;39.04;99219.69;2066027;28;20035;-76
2023/12/26 00:22:13;;;;;;;5.63;1.55;;;;;;;21.19;39.14;99214.63;2091431;28;20214;-76
2023/12/26 00:23:20;;;;;;;6.85;1.27;;;;;;;21.17;38.95;99216.97;2088200;28;20059;-76
2023/12/26 00:24:27;;;;;;;6.03;1.33;;;;;;;21.15;39.07;99219.28;2092003;28;20040;-75
2023/12/26 00:25:29;;;;;;;5.35;1.58;;;;;;;21.13;38.99;99215.38;2097978;28;20074;-75
2023/12/26 00:26:31;;;;;;;6.95;1.40;;;;;;;21.12;38.81;99222.00;2090324;28;20060;-75
2023/12/26 00:27:34;;;;;;;9.20;1.45;;;;;;;21.10;38.94;99216.94;2075675;28;20039;-75
2023/12/26 00:28:36;;;;;;;5.47;1.25;;;;;;;21.10;38.87;99232.53;2083659;28;20034;-75
2023/12/26 00:29:44;;;;;;;4.35;1.25;;;;;;;21.08;38.86;99223.94;2082730;28;20033;-75
2023/12/26 00:30:46;;;;;;;7.45;1.20;;;;;;;21.06;38.89;99227.84;2098284;28;21006;-75
2023/12/26 00:31:51;;;;;;;5.95;1.23;;;;;;;21.02;38.78;99227.00;2090454;28;20049;-75
2023/12/26 00:32:53;;;;;;;4.40;1.15;;;;;;;21.04;38.83;99234.84;2091005;28;20037;-75
2023/12/26 00:33:57;;;;;;;6.30;1.58;;;;;;;21.02;38.78;99227.00;2090824;28;20160;-75
2023/12/26 00:34:59;;;;;;;5.25;1.33;;;;;;;21.01;38.98;99230.13;2080299;28;20765;-75
2023/12/26 00:36:03;;;;;;;9.90;2.45;;;;;;;20.98;38.90;99225.44;2074007;28;20153;-76
2023/12/26 00:37:05;;;;;;;5.65;1.58;;;;;;;20.96;39.07;99231.25;2078747;28;20038;-75
2023/12/26 00:38:10;;;;;;;6.70;1.40;;;;;;;20.98;38.93;99234.41;2090579;28;20026;-75
2023/12/26 00:39:12;;;;;;;5.55;1.48;;;;;;;20.97;38.94;99221.16;2083552;28;20045;-77
2023/12/26 00:40:13;;;;;;;6.55;1.58;;;;;;;20.95;38.92;99226.19;2067052;28;20031;-77
2023/12/26 00:41:19;;;;;;;6.93;1.90;;;;;;;20.93;38.96;99223.84;2081487;28;20073;-76
2023/12/26 00:42:21;;;;;;;7.55;1.42;;;;;;;20.94;39.02;99224.63;2091680;28;20171;-77
2023/12/26 00:43:23;;;;;;;6.75;1.75;;;;;;;20.93;38.98;99242.97;2087516;28;20029;-76
2023/12/26 00:44:25;;;;;;;7.10;1.40;;;;;;;20.92;38.98;99226.97;2108412;28;20048;-76
2023/12/26 00:45:26;;;;;;;2.72;1.13;;;;;;;20.92;39.04;99227.75;2100299;28;20219;-77
2023/12/26 00:46:29;;;;;;;5.85;1.52;;;;;;;20.91;39.05;99231.66;2091387;28;20045;-77
2023/12/26 00:47:32;;;;;;;5.30;1.52;;;;;;;20.91;39.00;99226.19;2083718;28;20038;-76
2023/12/26 00:48:35;;;;;;;5.65;2.10;;;;;;;20.89;38.99;99223.03;2083261;28;20140;-76
2023/12/26 00:49:37;;;;;;;9.05;2.17;;;;;;;20.88;38.97;99231.63;2076167;28;20107;-77
2023/12/26 00:50:41;;;;;;;6.13;1.52;;;;;;;20.87;39.07;99236.31;2092177;28;20080;-78
2023/12/26 00:51:47;;;;;;;6.32;1.25;;;;;;;20.85;39.01;99233.16;2091623;28;20033;-78
2023/12/26 00:52:53;;;;;;;4.38;1.30;;;;;;;20.84;39.02;99228.88;2092994;28;20895;-76
2023/12/26 00:53:55;;;;;;;6.35;1.70;;;;;;;20.82;39.02;99228.44;2081879;28;20033;-76
2023/12/26 00:54:57;;;;;;;6.05;1.15;;;;;;;20.81;39.10;99243.28;2063557;28;20031;-76
2023/12/26 00:55:59;;;;;;;6.75;1.40;;;;;;;20.81;39.09;99226.91;2074544;28;20129;-76
2023/12/26 00:57:02;;;;;;;7.68;1.50;;;;;;;20.81;39.12;99232.34;2083313;28;21010;-75
2023/12/26 00:58:11;;;;;;;6.07;1.80;;;;;;;20.81;39.13;99241.34;2084286;28;20085;-74
2023/12/26 00:59:12;;;;;;;7.07;1.58;;;;;;;20.80;39.20;99236.22;2075879;28;20038;-75
2023/12/26 01:00:15;;;;;;;5.55;1.58;;;;;;;20.78;39.30;99244.03;2080530;28;20044;-74
2023/12/26 01:01:17;;;;;;;6.90;1.40;;;;;;;20.80;39.29;99247.94;2091703;28;20052;-73
2023/12/26 01:02:21;;;;;;;8.55;1.30;;;;;;;20.80;39.26;99247.16;2100028;28;20035;-74
2023/12/26 01:03:23;;;;;;;4.47;1.27;;;;;;;20.78;39.28;99250.28;2091540;28;20037;-74
2023/12/26 01:04:24;;;;;;;5.53;1.20;;;;;;;20.78;39.24;99246.78;2075413;28;20034;-76
2023/12/26 01:05:28;;;;;;;11.02;1.73;;;;;;;20.78;39.26;99257.69;2076720;28;20045;-74
2023/12/26 01:06:30;;;;;;;7.88;1.75;;;;;;;20.76;39.15;99246.34;2083910;28;20046;-75
2023/12/26 01:07:34;;;;;;;6.15;1.30;;;;;;;20.77;39.23;99247.91;2083624;28;20081;-77
2023/12/26 01:08:39;;;;;;;7.38;1.52;;;;;;;20.75;39.30;99250.25;2087739;28;20065;-74
2023/12/26 01:09:42;;;;;;;9.02;1.65;;;;;;;20.74;39.25;99245.94;2091427;28;20801;-77
2023/12/26 01:10:46;;;;;;;6.93;1.35;;;;;;;20.74;39.31;99251.41;2099359;28;20885;-77
2023/12/26 01:11:50;;;;;;;7.20;1.40;;;;;;;20.75;39.31;99251.03;2091368;28;20037;-76
2023/12/26 01:12:52;;;;;;;7.95;1.40;;;;;;;20.74;39.31;99249.47;2086206;28;20041;-75
2023/12/26 01:13:55;;;;;;;33.72;3.45;;;;;;;20.74;39.36;99245.94;2091636;28;20034;-76
2023/12/26 01:14:56;;;;;;;5.63;1.10;;;;;;;20.74;39.24;99238.56;2082324;28;20173;-75
2023/12/26 01:15:58;;;;;;;9.40;1.40;;;;;;;20.74;39.26;99232.28;2074802;28;20046;-74
2023/12/26 01:17:00;;;;;;;8.10;1.90;;;;;;;20.72;39.25;99234.63;2083492;28;20041;-74
2023/12/26 01:18:02;;;;;;;12.80;1.60;;;;;;;20.74;39.29;99238.56;2083617;28;20030;-75
2023/12/26 01:19:03;;;;;;;5.50;1.55;;;;;;;20.73;39.29;99230.72;2082910;28;20038;-74
2023/12/26 01:20:07;;;;;;;6.28;1.60;;;;;;;20.75;39.36;99231.16;2075081;28;20046;-73
2023/12/26 01:21:09;;;;;;;5.53;1.70;;;;;;;20.74;39.39;99229.56;2092274;28;20842;-73
2023/12/26 01:22:12;;;;;;;6.40;1.35;;;;;;;20.73;39.35;99233.47;2107745;28;20155;-73
2023/12/26 01:23:13;;;;;;;5.35;1.30;;;;;;;20.74;39.34;99244.03;2108014;28;20763;-73
2023/12/26 01:24:16;;;;;;;7.35;1.63;;;;;;;20.74;39.31;99246.75;2106945;28;20032;-74
2023/12/26 01:25:17;;;;;;;9.13;1.92;;;;;;;20.72;39.34;99234.63;2091204;28;20803;-73
2023/12/26 01:26:23;;;;;;;8.35;1.58;;;;;;;20.73;39.37;99238.91;2083028;28;20042;-73
2023/12/26 01:27:24;;;;;;;9.43;1.77;;;;;;;20.72;39.39;99240.09;2093512;28;20034;-74
2023/12/26 01:28:29;;;;;;;5.72;1.40;;;;;;;20.73;39.46;99242.44;2074603;28;20069;-73
2023/12/26 01:29:33;;;;;;;7.88;1.35;;;;;;;20.73;39.47;99233.47;2075799;28;20939;-73
2023/12/26 01:30:38;;;;;;;6.57;1.60;;;;;;;20.71;39.39;99233.03;2091463;28;20745;-73
2023/12/26 01:31:40;;;;;;;6.38;1.30;;;;;;;20.72;39.48;99240.88;2099825;28;20035;-74
2023/12/26 01:32:42;;;;;;;5.43;1.33;;;;;;;20.73;39.46;99241.66;2082784;28;20123;-74
2023/12/26 01:33:44;;;;;;;8.27;1.45;;;;;;;20.73;39.47;99258.03;2066895;28;20057;-74
2023/12/26 01:34:45;;;;;;;6.63;1.30;;;;;;;20.72;39.40;99240.09;2075060;28;20042;-74
2023/12/26 01:35:48;;;;;;;6.82;1.40;;;;;;;20.72;39.39;99245.56;2075039;28;20833;-73
2023/12/26 01:36:49;;;;;;;6.50;1.63;;;;;;;20.72;39.42;99245.56;2074905;28;20049;-74
2023/12/26 01:37:51;;;;;;;6.10;1.35;;;;;;;20.73;39.34;99249.84;2091188;28;20105;-74
2023/12/26 01:38:54;;;;;;;7.00;1.38;;;;;;;20.70;39.32;99248.66;2082736;28;20040;-73
2023/12/26 01:39:56;;;;;;;7.95;1.63;;;;;;;20.74;39.33;99244.03;2081870;28;20034;-73
2023/12/26 01:40:57;;;;;;;6.93;1.48;;;;;;;20.70;39.49;99243.19;2087472;28;20094;-74
2023/12/26 01:41:59;;;;;;;5.00;1.25;;;;;;;20.73;39.31;99241.66;2106273;28;20043;-74
2023/12/26 01:43:01;;;;;;;7.20;1.30;;;;;;;20.72;39.18;99240.88;2082625;28;20125;-74
2023/12/26 01:44:03;;;;;;;4.65;1.20;;;;;;;20.74;39.22;99243.22;2074026;28;20042;-74
2023/12/26 01:45:10;;;;;;;6.88;1.50;;;;;;;20.73;39.30;99230.72;2086853;28;20026;-74
2023/12/26 01:46:14;;;;;;;4.72;1.15;;;;;;;20.74;39.39;99237.75;2091098;28;20163;-74
2023/12/26 01:47:16;;;;;;;8.27;1.17;;;;;;;20.73;39.26;99241.66;2091895;28;20140;-73
2023/12/26 01:48:18;;;;;;;5.15;1.20;;;;;;;20.75;39.24;99233.88;2083016;28;21031;-73
2023/12/26 01:49:19;;;;;;;7.60;1.83;;;;;;;20.71;39.23;99228.38;2073193;28;20034;-75
2023/12/26 01:50:22;;;;;;;4.90;1.40;;;;;;;20.74;39.21;99232.28;2099685;28;20033;-74
2023/12/26 01:51:27;;;;;;;5.28;1.23;;;;;;;20.74;39.12;99227.63;2084332;28;20042;-75
2023/12/26 01:52:30;;;;;;;3.45;1.40;;;;;;;20.75;39.24;99234.66;2067741;28;20039;-75
2023/12/26 01:53:32;;;;;;;6.88;1.50;;;;;;;20.75;39.13;99223.72;2082374;28;20829;-75
2023/12/26 01:54:36;;;;;;;8.00;2.95;;;;;;;20.76;39.36;99224.50;2091350;28;20072;-75
2023/12/26 01:55:37;;;;;;;5.63;1.30;;;;;;;20.75;39.29;99217.50;2075533;28;20056;-75
2023/12/26 01:56:39;;;;;;;8.05;1.70;;;;;;;20.74;39.26;99218.63;2075235;28;20863;-75
2023/12/26 01:57:41;;;;;;;5.57;1.23;;;;;;;20.77;39.30;99231.53;2074951;28;20041;-75
2023/12/26 01:58:48;;;;;;;5.35;1.35;;;;;;;20.77;39.37;99226.06;2090040;28;20316;-74
2023/12/26 01:59:50;;;;;;;5.78;1.38;;;;;;;20.77;39.38;99226.06;2082938;28;20056;-75
2023/12/26 02:00:51;;;;;;;5.47;1.23;;;;;;;20.77;39.35;99226.06;2082636;28;20037;-75
2023/12/26 02:01:54;;;;;;;6.78;1.30;;;;;;;20.70;39.35;99217.81;2075104;28;20036;-75
2023/12/26 02:02:57;;;;;;;10.85;1.40;;;;;;;20.78;39.29;99227.66;2085460;28;20884;-75
2023/12/26 02:04:00;;;;;;;4.82;1.10;;;;;;;20.79;39.38;99229.22;2090781;28;20125;-75
2023/12/26 02:05:02;;;;;;;8.77;1.45;;;;;;;20.78;39.34;99222.19;2083469;28;20033;-74
2023/12/26 02:06:05;;;;;;;6.90;1.40;;;;;;;20.79;39.22;99223.75;2074881;28;20042;-73
2023/12/26 02:07:10;;;;;;;4.22;1.42;;;;;;;20.76;39.27;99230.75;2075956;28;20047;-73
2023/12/26 02:08:14;;;;;;;7.55;1.38;;;;;;;20.76;39.23;99219.03;2083751;28;20148;-74
2023/12/26 02:09:15;;;;;;;5.88;1.40;;;;;;;20.76;39.13;99224.50;2075190;28;20852;-73
2023/12/26 02:10:17;;;;;;;9.80;1.73;;;;;;;20.75;38.99;99229.19;2077435;28;20030;-73
2023/12/26 02:11:21;;;;;;;8.23;1.40;;;;;;;20.74;38.94;99237.75;2082912;28;20155;-73
2023/12/26 02:12:23;;;;;;;6.05;1.60;;;;;;;20.72;39.08;99224.50;2075046;28;20817;-73
2023/12/26 02:13:27;;;;;;;5.78;1.40;;;;;;;20.74;39.02;99224.09;2066555;28;20035;-74
2023/12/26 02:14:30;;;;;;;5.00;1.20;;;;;;;20.72;39.07;99229.94;2067601;28;20042;-74
2023/12/26 02:15:32;;;;;;;5.32;1.38;;;;;;;20.73;39.30;99236.19;2075568;28;20145;-73
2023/12/26 02:16:37;;;;;;;5.78;1.20;;;;;;;20.74;39.28;99227.63;2091098;28;20041;-74
2023/12/26 02:17:40;;;;;;;6.95;1.92;;;;;;;20.74;39.40;99230.38;2091558;28;20033;-74
2023/12/26 02:18:41;;;;;;;4.82;1.23;;;;;;;20.74;39.38;99237.75;2090748;28;20148;-74
2023/12/26 02:19:45;;;;;;;3.92;1.15;;;;;;;20.74;39.38;99224.91;2082947;28;20753;-74
2023/12/26 02:20:47;;;;;;;5.13;1.20;;;;;;;20.74;39.43;99227.63;2082794;28;20144;-73
2023/12/26 02:21:49;;;;;;;3.85;1.27;;;;;;;20.74;39.50;99226.81;2075137;28;20904;-72
2023/12/26 02:22:53;;;;;;;5.85;0.90;;;;;;;20.74;39.58;99215.91;2074820;28;20038;-72
2023/12/26 02:23:56;;;;;;;5.15;1.17;;;;;;;20.75;39.58;99206.56;2083953;28;20065;-72
2023/12/26 02:25:00;;;;;;;4.97;0.93;;;;;;;20.75;39.70;99217.50;2091304;28;20042;-73
2023/12/26 02:26:05;;;;;;;5.88;1.20;;;;;;;20.76;39.74;99210.84;2083600;28;20123;-74
2023/12/26 02:27:20;;;;;;;7.75;1.30;;;;;;;20.76;39.64;99202.66;2083966;28;20090;-73
2023/12/26 02:28:22;;;;;;;8.98;1.50;;;;;;;20.76;39.69;99208.13;2090259;28;20164;-75
2023/12/26 02:29:24;;;;;;;4.90;1.02;;;;;;;20.77;39.69;99206.94;2082989;28;20038;-74
2023/12/26 02:30:28;;;;;;;4.30;1.38;;;;;;;20.76;39.80;99213.59;2091106;28;20038;-74
2023/12/26 02:31:31;;;;;;;4.63;1.30;;;;;;;20.76;39.72;99217.09;2090652;28;20841;-73
2023/12/26 02:32:36;;;;;;;5.25;1.20;;;;;;;20.77;39.75;99220.59;2091364;28;20092;-74
2023/12/26 02:33:37;;;;;;;5.03;1.25;;;;;;;20.75;39.82;99218.25;2091328;28;20049;-74
2023/12/26 02:34:42;;;;;;;5.70;0.93;;;;;;;20.75;39.69;99206.56;2083220;28;20854;-74
2023/12/26 02:35:43;;;;;;;4.95;1.00;;;;;;;20.77;39.77;99204.22;2083448;28;20041;-74
2023/12/26 02:36:45;;;;;;;6.00;1.20;;;;;;;20.77;39.71;99218.66;2082870;28;20044;-75
2023/12/26 02:37:49;;;;;;;5.43;1.33;;;;;;;20.77;39.87;99215.13;2090699;28;20033;-74
2023/12/26 02:38:51;;;;;;;5.47;1.42;;;;;;;20.75;39.70;99212.03;2107348;28;20028;-76
2023/12/26 02:39:56;;;;;;;4.65;1.30;;;;;;;20.77;39.77;99196.03;2098963;28;20869;-75
2023/12/26 02:40:58;;;;;;;6.45;1.00;;;;;;;20.76;39.76;99195.25;2091416;28;20034;-76
2023/12/26 02:42:02;;;;;;;6.93;1.38;;;;;;;20.74;39.62;99194.84;2074618;28;20189;-75
2023/12/26 02:43:05;;;;;;;3.08;1.00;;;;;;;20.76;39.68;99191.72;2067958;28;20043;-76
2023/12/26 02:44:07;;;;;;;6.88;1.58;;;;;;;20.76;39.70;99194.47;2067204;28;20035;-75
2023/12/26 02:45:11;;;;;;;3.72;1.05;;;;;;;20.75;39.80;99199.16;2066869;28;20041;-76
2023/12/26 02:46:13;;;;;;;5.25;1.08;;;;;;;20.75;39.71;99195.63;2074642;28;20034;-76
2023/12/26 02:47:15;;;;;;;3.35;1.17;;;;;;;20.75;39.78;99195.63;2074877;28;20030;-76
2023/12/26 02:48:16;;;;;;;4.05;1.33;;;;;;;20.74;39.74;99188.59;2074364;28;20038;-70
2023/12/26 02:49:20;;;;;;;4.50;1.27;;;;;;;20.74;39.78;99188.59;2074648;28;20037;-74
2023/12/26 02:50:24;;;;;;;4.80;1.23;;;;;;;20.74;39.79;99194.06;2066301;28;20150;-74
2023/12/26 02:51:26;;;;;;;4.07;1.02;;;;;;;20.74;39.83;99188.59;2074991;28;21320;-74
2023/12/26 02:52:28;;;;;;;4.63;1.17;;;;;;;20.73;39.67;99182.34;2075003;28;20961;-75
2023/12/26 02:53:30;;;;;;;3.95;1.08;;;;;;;20.74;39.80;99177.66;2082668;28;20029;-75
2023/12/26 02:54:32;;;;;;;4.35;1.02;;;;;;;20.74;39.70;99177.66;2074582;28;20041;-74
2023/12/26 02:55:33;;;;;;;3.15;1.00;;;;;;;20.74;39.77;99177.66;2074494;28;21031;-72
2023/12/26 02:56:35;;;;;;;4.10;1.00;;;;;;;20.72;39.81;99169.84;2082280;28;20046;-74
2023/12/26 02:57:37;;;;;;;4.22;1.17;;;;;;;20.73;39.82;99174.16;2074365;28;20041;-74
2023/12/26 02:58:38;;;;;;;4.60;1.10;;;;;;;20.75;39.78;99184.72;2066364;28;20149;-73
2023/12/26 02:59:40;;;;;;;6.32;1.02;;;;;;;20.73;39.81;99179.63;2074424;28;20849;-75
2023/12/26 03:00:42;;;;;;;5.28;1.02;;;;;;;20.74;39.85;99173.00;2066204;28;20042;-75
2023/12/26 03:01:46;;;;;;;5.40;1.30;;;;;;;20.75;39.85;99174.56;2065948;28;21286;-75
2023/12/26 03:02:51;;;;;;;3.78;1.08;;;;;;;20.72;39.82;99180.78;2076115;28;20174;-75
2023/12/26 03:03:53;;;;;;;3.10;0.93;;;;;;;20.74;39.81;99173.00;2066158;28;20097;-75
2023/12/26 03:04:56;;;;;;;5.38;1.30;;;;;;;20.75;39.85;99173.78;2058970;28;20041;-75
2023/12/26 03:05:58;;;;;;;5.38;1.20;;;;;;;20.75;39.88;99173.78;2075437;28;20068;-75
2023/12/26 03:07:02;;;;;;;7.38;1.00;;;;;;;20.75;39.74;99174.56;2073852;28;20904;-75
2023/12/26 03:08:07;;;;;;;5.80;1.10;;;;;;;20.74;39.82;99167.53;2067855;28;20045;-75
2023/12/26 03:09:11;;;;;;;8.15;1.30;;;;;;;20.73;39.79;99162.44;2075062;28;20782;-75
2023/12/26 03:10:14;;;;;;;7.85;1.27;;;;;;;20.74;39.74;99166.72;2083070;28;20034;-74
2023/12/26 03:11:17;;;;;;;5.80;1.10;;;;;;;20.73;39.73;99165.19;2090692;28;20069;-75
2023/12/26 03:12:19;;;;;;;5.25;1.08;;;;;;;20.74;39.65;99166.72;2091110;28;20847;-75
2023/12/26 03:13:21;;;;;;;5.15;1.00;;;;;;;20.74;39.77;99164.00;2082495;28;20057;-75
2023/12/26 03:14:26;;;;;;;3.50;0.93;;;;;;;20.71;39.72;99154.66;2082970;28;21122;-75
2023/12/26 03:15:27;;;;;;;4.55;1.15;;;;;;;20.71;39.40;99154.66;2074636;28;20093;-75
2023/12/26 03:16:29;;;;;;;5.50;1.23;;;;;;;20.73;39.73;99159.72;2074672;28;20916;-75
2023/12/26 03:17:31;;;;;;;4.20;1.05;;;;;;;20.73;39.64;99154.25;2090291;28;20034;-75
2023/12/26 03:18:33;;;;;;;7.57;1.27;;;;;;;20.73;39.62;99160.50;2074353;28;20924;-75
2023/12/26 03:19:35;;;;;;;3.28;0.93;;;;;;;20.69;39.52;99154.22;2074430;28;20030;-76
2023/12/26 03:20:41;;;;;;;7.95;1.60;;;;;;;20.72;39.63;99156.19;2082599;28;20038;-75
2023/12/26 03:21:43;;;;;;;4.05;1.00;;;;;;;20.72;39.75;99161.66;2082171;28;20037;-75
2023/12/26 03:22:46;;;;;;;4.72;1.13;;;;;;;20.74;39.64;99155.81;2082653;28;20038;-75
2023/12/26 03:23:47;;;;;;;4.20;1.20;;;;;;;20.73;39.67;99160.50;2074422;28;20041;-76
2023/12/26 03:24:49;;;;;;;3.55;1.10;;;;;;;20.73;39.72;99165.19;2082818;28;20144;-75
2023/12/26 03:25:51;;;;;;;4.82;1.30;;;;;;;20.72;39.68;99156.19;2082553;28;20097;-75
2023/12/26 03:26:54;;;;;;;4.32;1.10;;;;;;;20.72;39.74;99161.66;2082482;28;20045;-75
2023/12/26 03:27:56;;;;;;;3.28;0.90;;;;;;;20.73;39.76;99159.72;2090826;28;20049;-75
2023/12/26 03:28:57;;;;;;;3.70;1.10;;;;;;;20.73;39.76;99167.91;2090467;28;20788;-75
2023/12/26 03:29:58;;;;;;;4.53;1.02;;;;;;;20.72;39.71;99160.88;2082439;28;20044;-75
2023/12/26 03:31:02;;;;;;;3.92;1.15;;;;;;;20.72;39.67;99152.69;2066199;28;20035;-75
2023/12/26 03:32:07;;;;;;;4.70;1.33;;;;;;;20.72;39.67;99158.16;2075297;28;20030;-76
2023/12/26 03:33:09;;;;;;;6.05;1.17;;;;;;;20.72;39.59;99153.47;2082274;28;20033;-74
2023/12/26 03:34:13;;;;;;;3.88;1.00;;;;;;;20.71;39.72;99162.84;2074620;28;20164;-74
2023/12/26 03:35:15;;;;;;;5.10;1.15;;;;;;;20.72;39.59;99158.94;2090320;28;20084;-76
2023/12/26 03:36:16;;;;;;;9.45;1.10;;;;;;;20.71;39.59;99162.03;2065964;28;20332;-74
2023/12/26 03:37:18;;;;;;;4.05;1.40;;;;;;;20.71;39.63;99156.56;2066375;28;20070;-76
2023/12/26 03:38:19;;;;;;;4.85;1.10;;;;;;;20.72;39.64;99161.66;2073705;28;20045;-77
2023/12/26 03:39:21;;;;;;;3.97;1.35;;;;;;;20.71;39.62;99156.56;2082825;28;20049;-76
2023/12/26 03:40:26;;;;;;;6.40;0.90;;;;;;;20.72;39.65;99158.16;2090260;28;20871;-76
2023/12/26 03:41:34;;;;;;;4.53;0.93;;;;;;;20.72;39.56;99158.16;2074962;28;20034;-76
2023/12/26 03:42:36;;;;;;;4.72;0.98;;;;;;;20.71;39.55;99151.09;2076066;28;20049;-72
2023/12/26 03:43:40;;;;;;;5.40;1.17;;;;;;;20.70;39.57;99149.53;2079798;28;20121;-74
2023/12/26 03:44:46;;;;;;;4.43;0.90;;;;;;;20.70;39.67;99153.06;2082294;28;20099;-75
2023/12/26 03:45:49;;;;;;;4.22;1.10;;;;;;;20.71;39.69;99153.84;2074891;28;20924;-73
2023/12/26 03:46:52;;;;;;;4.80;1.00;;;;;;;20.72;39.57;99152.69;2075074;28;20073;-73
2023/12/26 03:47:58;;;;;;;7.07;1.00;;;;;;;20.72;39.54;99147.22;2082248;28;20069;-73
2023/12/26 03:49:01;;;;;;;4.07;1.10;;;;;;;20.71;39.50;99145.66;2091855;28;20044;-74
2023/12/26 03:50:06;;;;;;;5.05;0.93;;;;;;;20.71;39.60;99142.91;2098682;28;20883;-75
2023/12/26 03:51:08;;;;;;;6.68;1.40;;;;;;;20.69;39.60;99142.53;2082992;28;20045;-74
2023/12/26 03:52:10;;;;;;;3.97;1.05;;;;;;;20.71;39.62;99137.44;2082958;28;20034;-74
2023/12/26 03:53:12;;;;;;;6.13;1.20;;;;;;;20.71;39.52;99142.91;2082176;28;20034;-74
2023/12/26 03:54:14;;;;;;;5.57;1.20;;;;;;;20.71;39.56;99124.59;2082122;28;20064;-73
2023/12/26 03:55:17;;;;;;;6.25;1.13;;;;;;;20.70;39.60;99133.16;2090695;28;20033;-74
2023/12/26 03:56:22;;;;;;;3.55;1.30;;;;;;;20.70;39.55;99123.00;2090657;28;20164;-75
2023/12/26 03:57:28;;;;;;;5.93;1.20;;;;;;;20.69;39.56;99115.22;2082978;28;20089;-77
2023/12/26 03:58:32;;;;;;;4.70;1.30;;;;;;;20.68;39.43;99119.09;2082629;28;20034;-75
2023/12/26 03:59:37;;;;;;;6.68;1.00;;;;;;;20.70;39.52;99111.31;2074145;28;20125;-75
2023/12/26 04:00:39;;;;;;;4.25;0.93;;;;;;;20.70;39.45;99116.78;2078830;28;20128;-76
2023/12/26 04:01:40;;;;;;;5.93;1.05;;;;;;;20.71;39.60;99112.88;2096767;28;20045;-74
2023/12/26 04:02:43;;;;;;;4.72;1.00;;;;;;;20.72;39.47;99114.47;2089480;28;20033;-74
2023/12/26 04:03:48;;;;;;;4.10;1.10;;;;;;;20.72;39.36;99114.47;2080231;28;20049;-75
2023/12/26 04:04:51;;;;;;;6.32;1.23;;;;;;;20.72;39.55;99111.72;2065194;28;21012;-74
2023/12/26 04:05:55;;;;;;;4.88;1.00;;;;;;;20.72;39.48;99106.25;2081408;28;20496;-74
2023/12/26 04:06:59;;;;;;;4.70;1.40;;;;;;;20.72;39.50;99109.00;2089193;28;20160;-74
2023/12/26 04:08:04;;;;;;;5.85;1.00;;;;;;;20.72;39.50;99109.00;2080780;28;20033;-75
2023/12/26 04:09:08;;;;;;;4.45;1.05;;;;;;;20.74;39.51;99101.19;2089559;28;20033;-75
2023/12/26 04:10:11;;;;;;;3.97;1.08;;;;;;;20.73;39.39;99099.63;2097009;28;20033;-76
2023/12/26 04:11:12;;;;;;;4.05;1.10;;;;;;;20.73;39.22;99105.09;2072384;28;20034;-75
2023/12/26 04:12:14;;;;;;;4.90;1.05;;;;;;;20.73;39.39;99091.44;2089473;28;20156;-76
2023/12/26 04:13:18;;;;;;;5.60;1.17;;;;;;;20.74;39.40;99090.25;2081917;28;20034;-75
2023/12/26 04:14:20;;;;;;;7.93;1.05;;;;;;;20.74;39.28;99093.00;2074917;28;20149;-75
2023/12/26 04:15:22;;;;;;;6.85;1.30;;;;;;;20.73;39.33;99100.41;2082409;28;20037;-75
2023/12/26 04:16:24;;;;;;;5.82;1.35;;;;;;;20.73;39.29;99100.41;2082434;28;20886;-75
2023/12/26 04:17:25;;;;;;;4.90;1.45;;;;;;;20.74;39.21;99096.53;2082151;28;20128;-76
2023/12/26 04:18:29;;;;;;;6.40;1.23;;;;;;;20.73;39.22;99096.91;2090789;28;20085;-75
2023/12/26 04:19:31;;;;;;;5.68;1.35;;;;;;;20.74;39.17;99095.72;2090397;28;20030;-74
2023/12/26 04:20:33;;;;;;;4.95;1.00;;;;;;;20.74;39.15;99093.00;2090485;28;20070;-72
2023/12/26 04:21:48;;;;;;;6.57;1.98;;;;;;;20.74;39.20;99090.25;2087332;28;20034;-73
2023/12/26 04:22:53;;;;;;;4.50;1.40;;;;;;;20.74;39.06;99087.53;2084601;28;20128;-74
2023/12/26 04:23:57;;;;;;;4.80;1.20;;;;;;;20.71;39.08;99080.09;2073418;28;20161;-73
2023/12/26 04:25:02;;;;;;;4.80;1.30;;;;;;;20.74;39.02;99084.78;2075154;28;21043;-74
2023/12/26 04:26:05;;;;;;;4.25;1.10;;;;;;;20.73;39.04;99083.25;2082038;28;20247;-74
2023/12/26 04:27:09;;;;;;;3.80;0.90;;;;;;;20.72;39.07;99074.25;2082987;28;20044;-75
2023/12/26 04:28:11;;;;;;;5.88;1.00;;;;;;;20.73;39.10;99072.31;2074652;28;20045;-75
2023/12/26 04:29:13;;;;;;;4.38;1.38;;;;;;;20.73;39.12;99073.09;2090878;28;20198;-75
2023/12/26 04:30:20;;;;;;;8.55;1.30;;;;;;;20.72;39.14;99068.03;2090616;28;20033;-75
2023/12/26 04:31:22;;;;;;;4.80;0.90;;;;;;;20.72;39.17;99059.84;2083621;28;20108;-72
2023/12/26 04:32:27;;;;;;;4.85;1.17;;;;;;;20.73;39.07;99058.66;2091117;28;20092;-73
2023/12/26 04:33:29;;;;;;;3.72;1.10;;;;;;;20.72;39.15;99052.41;2083019;28;20240;-74
2023/12/26 04:34:33;;;;;;;3.42;0.82;;;;;;;20.71;39.17;99059.06;2092070;28;20042;-74
2023/12/26 04:35:35;;;;;;;5.70;1.15;;;;;;;20.74;39.18;99062.94;2083494;28;20090;-75
2023/12/26 04:36:36;;;;;;;4.18;1.52;;;;;;;20.74;39.16;99052.03;2091833;28;20038;-75
2023/12/26 04:37:41;;;;;;;4.50;1.40;;;;;;;20.72;39.16;99049.69;2100110;28;20047;-74
2023/12/26 04:38:43;;;;;;;6.10;1.38;;;;;;;20.69;39.08;99060.59;2083825;28;20148;-74
2023/12/26 04:39:44;;;;;;;6.80;1.20;;;;;;;20.73;39.07;99055.94;2083601;28;20038;-74
2023/12/26 04:40:46;;;;;;;6.47;1.00;;;;;;;20.73;39.16;99058.66;2100038;28;20045;-74
2023/12/26 04:41:48;;;;;;;4.28;1.00;;;;;;;20.72;39.30;99060.63;2092014;28;20938;-74
2023/12/26 04:42:50;;;;;;;3.53;1.10;;;;;;;20.73;39.17;99058.66;2083780;28;20045;-75
2023/12/26 04:43:54;;;;;;;3.55;1.02;;;;;;;20.73;39.18;99059.44;2083185;28;20060;-75
2023/12/26 04:45:01;;;;;;;4.88;0.93;;;;;;;20.73;39.25;99050.47;2084125;28;20030;-75
2023/12/26 04:46:06;;;;;;;9.25;1.75;;;;;;;20.74;39.18;99052.03;2076566;28;20841;-75
2023/12/26 04:47:10;;;;;;;4.82;1.10;;;;;;;20.73;39.13;99056.72;2075802;28;20046;-75
2023/12/26 04:48:12;;;;;;;7.18;1.35;;;;;;;20.73;39.27;99048.50;2075444;28;20141;-75
2023/12/26 04:49:14;;;;;;;3.20;1.00;;;;;;;20.73;39.19;99045.00;2075481;28;20034;-75
2023/12/26 04:50:18;;;;;;;4.38;1.15;;;;;;;20.75;39.24;99048.13;2075081;28;20776;-73
2023/12/26 04:51:21;;;;;;;5.03;1.10;;;;;;;20.75;39.36;99045.41;2068153;28;20829;-74
2023/12/26 04:52:23;;;;;;;6.25;1.23;;;;;;;20.74;39.23;99038.38;2083714;28;20050;-73
2023/12/26 04:53:29;;;;;;;5.88;1.27;;;;;;;20.73;39.09;99032.13;2083586;28;20738;-74
2023/12/26 04:54:31;;;;;;;3.97;1.20;;;;;;;20.73;39.17;99029.38;2076764;28;20733;-74
2023/12/26 04:55:32;;;;;;;5.28;1.20;;;;;;;20.73;39.24;99034.06;2067171;28;20125;-73
2023/12/26 04:56:36;;;;;;;8.18;1.40;;;;;;;20.73;39.17;99028.63;2075272;28;20042;-74